Candor, North Carolina
Current Conditions -  °F | °C
As of 11:55 PM on Wednesday 22 Oct 2014 (Local Time) from KSOP Reporting Station
Clear Clear  
Wind Chill:   Ceiling: Unl
Heat Index:   Visibility: 10mi
Dew Point:   Wind: 3mph
Humidity: 66%   Direction: 270°W
Pressure: 30.07"   Gusts: NA
Location:  35.3°N, 79.75°W
Report Text: KSOP 230355Z AUTO 27003KT 10SM CLR 09/03 A3007 RMK AO1
Loading
Personal Weather Stations






























Interactive Weather Map
Tropical Storm Tracking
New forecast layout! Learn more

10-Day Weather Forecast

Advertisements
Track Severe Weather on mobile